createdAt,value
2022-08-25T00:01:27.005Z,78.91
2022-08-25T00:03:57.122Z,79.11
2022-08-25T00:06:24.862Z,79.04
2022-08-25T00:08:52.319Z,78.26
2022-08-25T00:11:22.383Z,78.32
2022-08-25T00:13:52.383Z,78.81
2022-08-25T00:16:22.705Z,79.40
2022-08-25T00:18:52.816Z,79.90
2022-08-25T00:21:20.319Z,79.21
2022-08-25T00:23:48.469Z,78.55
2022-08-25T00:26:16.666Z,79.14
2022-08-25T00:28:44.629Z,78.79
2022-08-25T00:31:13.467Z,80.03
2022-08-25T00:33:43.417Z,79.98
2022-08-25T00:36:10.781Z,79.65
2022-08-25T00:38:38.385Z,78.54
2022-08-25T00:41:06.163Z,78.42
2022-08-25T00:43:35.912Z,78.59
2022-08-25T00:46:03.269Z,78.09
2022-08-25T00:48:30.821Z,77.92
2022-08-25T00:51:00.390Z,77.64
2022-08-25T00:53:28.319Z,78.31
2022-08-25T00:55:56.042Z,78.19
2022-08-25T00:58:26.608Z,78.61
2022-08-25T01:00:56.366Z,79.64
2022-08-25T01:03:31.618Z,79.90
2022-08-25T01:06:03.393Z,81.33
2022-08-25T01:08:32.727Z,81.65
2022-08-25T01:11:04.440Z,81.76
2022-08-25T01:13:35.435Z,81.70
2022-08-25T01:16:03.662Z,81.43
2022-08-25T01:18:43.995Z,81.02
2022-08-25T01:21:13.121Z,80.89
2022-08-25T01:23:40.509Z,80.75
2022-08-25T01:26:09.882Z,80.64
2022-08-25T01:28:37.966Z,80.57
2022-08-25T01:31:05.467Z,80.63
2022-08-25T01:33:51.985Z,80.29
2022-08-25T01:36:21.516Z,80.29
2022-08-25T01:38:49.031Z,80.47
2022-08-25T01:41:17.582Z,80.30
2022-08-25T01:43:44.776Z,79.70
2022-08-25T01:46:12.063Z,79.64
2022-08-25T01:48:39.522Z,79.20
2022-08-25T01:51:06.729Z,79.58
2022-08-25T01:53:35.453Z,79.68
2022-08-25T01:56:09.709Z,79.60
2022-08-25T01:58:40.337Z,79.28
2022-08-25T02:01:09.858Z,79.03
2022-08-25T02:03:38.594Z,79.20
2022-08-25T02:06:12.209Z,78.72
2022-08-25T02:08:41.358Z,78.20
2022-08-25T02:11:12.002Z,78.43
2022-08-25T02:13:39.953Z,78.90
2022-08-25T02:16:10.070Z,79.48
2022-08-25T02:18:37.481Z,79.06
2022-08-25T02:21:05.203Z,78.69
2022-08-25T02:23:32.500Z,79.02
2022-08-25T02:26:01.186Z,78.23
2022-08-25T02:28:28.671Z,78.16
2022-08-25T02:31:01.397Z,78.36
2022-08-25T02:33:29.390Z,78.11
2022-08-25T02:35:58.436Z,78.69
2022-08-25T02:38:25.635Z,78.24
2022-08-25T02:40:52.835Z,78.28
2022-08-25T02:43:22.136Z,78.31
2022-08-25T02:45:49.398Z,77.99
2022-08-25T02:48:38.647Z,77.49
2022-08-25T02:51:08.305Z,77.44
2022-08-25T02:53:37.161Z,77.73
2022-08-25T02:56:04.607Z,78.10
2022-08-25T02:58:33.551Z,79.14
2022-08-25T03:01:00.849Z,78.78
2022-08-25T03:03:28.274Z,79.50
2022-08-25T03:05:55.955Z,79.31
2022-08-25T03:08:23.435Z,79.22
2022-08-25T03:10:52.059Z,79.77
2022-08-25T03:13:19.678Z,79.88
2022-08-25T03:15:49.294Z,79.76
2022-08-25T03:18:16.599Z,80.96
2022-08-25T03:20:44.948Z,81.37
2022-08-25T03:23:12.514Z,81.61
2022-08-25T03:25:41.030Z,80.83
2022-08-25T03:28:09.106Z,79.59
2022-08-25T03:30:36.380Z,79.23
2022-08-25T03:33:05.116Z,79.53
2022-08-25T03:35:32.709Z,80.41
2022-08-25T03:38:01.056Z,80.10
2022-08-25T03:40:28.971Z,79.92
2022-08-25T03:42:56.545Z,79.20
2022-08-25T03:45:25.382Z,79.19
2022-08-25T03:47:53.571Z,78.65
2022-08-25T03:50:23.572Z,78.51
2022-08-25T03:52:52.766Z,79.02
2022-08-25T03:55:22.118Z,79.67
2022-08-25T03:57:50.307Z,80.77
2022-08-25T04:00:17.796Z,80.03
2022-08-25T04:02:45.087Z,79.69
2022-08-25T04:05:13.258Z,79.67
2022-08-25T04:07:44.748Z,79.33
2022-08-25T04:10:13.103Z,78.63
2022-08-25T04:12:40.548Z,77.86
2022-08-25T04:15:08.727Z,78.08
2022-08-25T04:17:38.021Z,77.35
2022-08-25T04:20:07.452Z,77.61
2022-08-25T04:22:36.817Z,77.79
2022-08-25T04:25:06.985Z,77.97
2022-08-25T04:27:34.675Z,78.15
2022-08-25T04:30:01.894Z,78.58
2022-08-25T04:32:30.510Z,79.46
2022-08-25T04:34:58.051Z,80.15
2022-08-25T04:37:25.258Z,79.96
2022-08-25T04:39:52.881Z,80.69
2022-08-25T04:42:22.216Z,79.51
2022-08-25T04:44:49.429Z,79.93
2022-08-25T04:47:16.623Z,80.55
2022-08-25T04:49:44.156Z,80.51
2022-08-25T04:52:14.505Z,80.06
2022-08-25T04:54:42.064Z,80.27
2022-08-25T04:57:09.642Z,81.05
2022-08-25T04:59:38.549Z,80.32
2022-08-25T05:02:06.315Z,80.92
2022-08-25T05:04:35.366Z,80.82
2022-08-25T05:07:03.728Z,80.55
2022-08-25T05:09:32.480Z,78.89
2022-08-25T05:12:02.253Z,78.46
2022-08-25T05:14:30.316Z,79.18
2022-08-25T05:17:01.378Z,79.83
2022-08-25T05:19:29.008Z,79.19
2022-08-25T05:21:57.759Z,79.70
2022-08-25T05:24:25.545Z,78.72
2022-08-25T05:26:53.113Z,78.68
2022-08-25T05:29:20.370Z,78.12
2022-08-25T05:31:50.604Z,77.57
2022-08-25T05:34:20.505Z,78.40
2022-08-25T05:36:48.694Z,79.40
2022-08-25T05:39:16.071Z,79.12
2022-08-25T05:41:44.158Z,79.73
2022-08-25T05:44:19.118Z,79.86
2022-08-25T05:46:49.769Z,79.52
2022-08-25T05:49:17.310Z,80.42
2022-08-25T05:51:48.998Z,79.92
2022-08-25T05:54:16.620Z,79.19
2022-08-25T05:56:44.039Z,79.57
2022-08-25T05:59:11.390Z,79.04
2022-08-25T06:01:39.102Z,79.12
2022-08-25T06:04:06.537Z,78.01
2022-08-25T06:06:33.862Z,77.78
2022-08-25T06:09:04.204Z,78.00
2022-08-25T06:11:31.429Z,77.99
2022-08-25T06:13:58.712Z,77.53
2022-08-25T06:16:26.437Z,77.71
2022-08-25T06:18:56.774Z,78.06
2022-08-25T06:21:24.212Z,77.93
2022-08-25T06:23:51.884Z,77.67
2022-08-25T06:26:25.075Z,77.83
2022-08-25T06:28:53.600Z,78.01
2022-08-25T06:31:21.749Z,77.58
2022-08-25T06:33:51.951Z,77.11
2022-08-25T06:36:20.285Z,77.48
2022-08-25T06:38:48.523Z,76.78
2022-08-25T06:41:18.482Z,76.08
2022-08-25T06:43:50.819Z,75.81
2022-08-25T06:46:22.229Z,74.61
2022-08-25T06:49:03.796Z,75.46
2022-08-25T06:51:31.029Z,75.41
2022-08-25T06:54:00.965Z,75.56
2022-08-25T06:56:28.497Z,76.47
2022-08-25T06:58:59.217Z,77.90
2022-08-25T07:01:27.372Z,77.32
2022-08-25T07:03:58.345Z,77.71
2022-08-25T07:06:27.765Z,77.57
2022-08-25T07:08:55.437Z,77.02
2022-08-25T07:11:23.128Z,75.98
2022-08-25T07:13:51.292Z,75.96
2022-08-25T07:16:21.476Z,75.06
2022-08-25T07:18:49.259Z,75.39
2022-08-25T07:21:17.414Z,76.61
2022-08-25T07:23:47.821Z,75.96
2022-08-25T07:29:07.785Z,76.04
2022-08-25T07:31:37.552Z,75.08
2022-08-25T07:34:05.233Z,74.68
2022-08-25T07:36:33.956Z,75.01
2022-08-25T07:39:01.967Z,74.37
2022-08-25T07:41:29.365Z,74.56
2022-08-25T07:43:56.788Z,74.53
2022-08-25T07:46:24.424Z,74.89
2022-08-25T07:48:53.586Z,74.79
2022-08-25T07:51:21.212Z,73.95
2022-08-25T07:53:50.313Z,74.42
2022-08-25T07:56:17.950Z,74.32
2022-08-25T07:58:46.660Z,74.47
2022-08-25T08:01:15.381Z,75.16
2022-08-25T08:03:50.347Z,74.49
2022-08-25T08:06:23.164Z,74.35
2022-08-25T08:08:54.617Z,74.77
2022-08-25T08:11:27.455Z,73.74
2022-08-25T08:13:56.177Z,72.72
2022-08-25T08:16:27.358Z,72.47
2022-08-25T08:18:54.836Z,73.20
2022-08-25T08:21:26.974Z,74.71
2022-08-25T08:23:58.888Z,74.17
2022-08-25T08:26:36.485Z,74.32
2022-08-25T08:29:14.796Z,75.51
2022-08-25T08:31:48.814Z,75.07
2022-08-25T08:34:17.311Z,75.08
2022-08-25T08:36:46.063Z,75.65
2022-08-25T08:39:13.341Z,74.72
2022-08-25T08:42:11.535Z,75.66
2022-08-25T08:44:54.352Z,75.83
2022-08-25T08:47:32.098Z,74.98
2022-08-25T08:50:05.729Z,74.27
2022-08-25T08:52:42.916Z,74.06
2022-08-25T08:55:15.981Z,73.11
2022-08-25T09:00:20.299Z,73.19
2022-08-25T09:02:54.773Z,72.31
2022-08-25T09:05:27.217Z,71.71
2022-08-25T09:07:58.294Z,73.33
2022-08-25T09:10:33.643Z,72.92
2022-08-25T09:13:15.296Z,73.50
2022-08-25T09:16:00.001Z,73.65
2022-08-25T09:18:41.191Z,71.67
2022-08-25T09:21:25.038Z,69.52
2022-08-25T09:24:09.359Z,68.88
2022-08-25T09:26:47.578Z,68.84
2022-08-25T09:29:20.760Z,68.36
2022-08-25T09:31:49.108Z,66.61
2022-08-25T09:34:20.402Z,66.65
2022-08-25T09:36:47.749Z,65.91
2022-08-25T09:39:17.356Z,65.68
2022-08-25T09:41:47.508Z,66.12
2022-08-25T09:44:22.975Z,66.49
2022-08-25T09:47:00.013Z,66.46
2022-08-25T09:49:34.095Z,65.81
2022-08-25T09:52:32.252Z,63.46
2022-08-25T09:55:22.336Z,63.06
2022-08-25T09:57:56.084Z,62.88
2022-08-25T10:00:26.477Z,65.08
2022-08-25T10:03:10.106Z,61.07
2022-08-25T10:05:56.304Z,65.13
2022-08-25T10:08:29.909Z,62.94
2022-08-25T10:11:00.813Z,61.36
2022-08-25T10:13:41.046Z,60.35
2022-08-25T10:16:20.345Z,58.63
2022-08-25T10:19:06.206Z,59.72
2022-08-25T10:21:35.509Z,60.62
2022-08-25T10:24:06.837Z,60.48
2022-08-25T10:26:48.514Z,60.97
2022-08-25T10:29:29.343Z,59.22
2022-08-25T10:32:12.145Z,57.29
2022-08-25T10:34:51.667Z,59.71
2022-08-25T10:37:34.796Z,59.63
2022-08-25T10:40:12.196Z,59.43
2022-08-25T10:42:51.683Z,55.90
2022-08-25T10:45:23.191Z,58.33
2022-08-25T10:48:25.124Z,57.77
2022-08-25T10:50:56.916Z,60.88
2022-08-25T10:53:28.842Z,59.79
2022-08-25T10:56:13.747Z,59.11
2022-08-25T10:59:10.051Z,57.92
2022-08-25T11:01:58.048Z,56.79
2022-08-25T11:04:32.693Z,57.59
2022-08-25T11:07:08.258Z,57.09
2022-08-25T11:09:41.547Z,57.56
2022-08-25T11:12:13.892Z,57.18
2022-08-25T11:14:49.268Z,58.28
2022-08-25T11:17:20.201Z,59.60
2022-08-25T11:19:49.338Z,58.08
2022-08-25T11:22:22.907Z,54.24
2022-08-25T11:25:02.046Z,57.03
2022-08-25T11:27:37.022Z,56.62
2022-08-25T11:30:10.039Z,53.75
2022-08-25T11:32:39.162Z,55.71
2022-08-25T11:35:13.300Z,54.75
2022-08-25T11:37:54.115Z,55.06
2022-08-25T11:40:41.266Z,55.26
2022-08-25T11:43:25.316Z,55.95
2022-08-25T11:46:04.083Z,56.10
2022-08-25T11:48:47.502Z,56.07
2022-08-25T11:51:30.822Z,54.99
2022-08-25T11:54:18.512Z,54.50
2022-08-25T11:57:00.389Z,54.33
2022-08-25T12:00:08.199Z,50.73
2022-08-25T12:02:40.294Z,51.13
2022-08-25T12:05:32.230Z,50.10
2022-08-25T12:08:07.768Z,50.46
2022-08-25T12:10:55.997Z,47.56
2022-08-25T12:13:39.787Z,44.86
2022-08-25T12:16:08.028Z,44.67
2022-08-25T12:18:45.840Z,46.09
2022-08-25T12:21:32.092Z,46.20
2022-08-25T12:24:16.036Z,49.07
2022-08-25T12:26:52.727Z,48.03
2022-08-25T12:29:40.435Z,48.01
2022-08-25T12:32:39.493Z,47.72
2022-08-25T12:35:21.552Z,46.25
2022-08-25T12:37:58.499Z,47.21
2022-08-25T12:40:32.659Z,48.21
2022-08-25T12:43:25.149Z,48.53
2022-08-25T12:46:33.582Z,47.00
2022-08-25T12:49:02.644Z,50.70
2022-08-25T12:51:48.983Z,47.42
2022-08-25T12:54:22.726Z,49.03
2022-08-25T12:56:55.882Z,49.09
2022-08-25T12:59:31.624Z,48.11
2022-08-25T13:02:24.784Z,45.93
2022-08-25T13:05:36.269Z,47.28
2022-08-25T13:08:37.033Z,48.02
2022-08-25T13:11:11.154Z,49.79
2022-08-25T13:13:49.581Z,46.09
2022-08-25T13:16:19.915Z,49.07
2022-08-25T13:18:51.648Z,50.60
2022-08-25T13:21:23.252Z,49.77
2022-08-25T13:23:53.850Z,49.29
2022-08-25T13:26:24.077Z,49.14
2022-08-25T13:28:57.333Z,48.79
2022-08-25T13:31:25.818Z,49.49
2022-08-25T13:33:55.773Z,48.41
2022-08-25T13:36:24.241Z,47.48
2022-08-25T13:38:51.636Z,46.30
2022-08-25T13:41:23.742Z,46.43
2022-08-25T13:44:00.861Z,46.69
2022-08-25T13:46:29.950Z,43.98
2022-08-25T13:49:05.705Z,45.98
2022-08-25T13:51:36.815Z,45.93
2022-08-25T13:54:07.182Z,49.07
2022-08-25T13:56:41.043Z,46.74
2022-08-25T13:59:23.071Z,48.40
2022-08-25T14:01:52.197Z,51.83
2022-08-25T14:04:31.740Z,51.80
2022-08-25T14:07:24.617Z,50.51
2022-08-25T14:09:55.265Z,50.85
2022-08-25T14:12:33.684Z,49.41
2022-08-25T14:15:07.715Z,48.98
2022-08-25T14:17:41.471Z,48.63
2022-08-25T14:20:20.339Z,49.08
2022-08-25T14:22:58.080Z,49.50
2022-08-25T14:25:26.169Z,49.60
2022-08-25T14:28:13.536Z,48.69
2022-08-25T14:30:46.017Z,48.38
2022-08-25T14:33:15.892Z,46.02
2022-08-25T14:35:48.854Z,46.55
2022-08-25T14:38:17.033Z,45.40
2022-08-25T14:40:45.205Z,46.09
2022-08-25T14:43:12.909Z,47.68
2022-08-25T14:45:48.070Z,47.30
2022-08-25T14:48:47.464Z,47.64
2022-08-25T14:51:17.509Z,45.31
2022-08-25T14:53:45.080Z,46.13
2022-08-25T14:56:14.223Z,47.19
2022-08-25T14:58:48.305Z,48.02
2022-08-25T15:01:29.062Z,47.44
2022-08-25T15:04:03.542Z,46.18
2022-08-25T15:06:30.948Z,47.95
2022-08-25T15:08:58.540Z,48.86
2022-08-25T15:11:26.330Z,48.64
2022-08-25T15:13:54.022Z,49.13
2022-08-25T15:16:33.847Z,50.13
2022-08-25T15:19:03.510Z,50.73
2022-08-25T15:21:35.762Z,50.12
2022-08-25T15:24:03.931Z,48.67
2022-08-25T15:26:34.561Z,49.61
2022-08-25T15:29:04.248Z,50.63
2022-08-25T15:31:32.930Z,51.33
2022-08-25T15:34:01.650Z,52.06
2022-08-25T15:36:29.325Z,52.36
2022-08-25T15:38:56.541Z,51.12
2022-08-25T15:41:27.657Z,51.94
2022-08-25T15:43:55.819Z,52.19
2022-08-25T15:46:26.140Z,52.38
2022-08-25T15:51:28.882Z,52.03
2022-08-25T15:53:57.078Z,52.25
2022-08-25T15:56:28.385Z,52.07
2022-08-25T15:58:55.991Z,52.69
2022-08-25T16:01:25.022Z,52.95
2022-08-25T16:03:52.851Z,53.25
2022-08-25T16:06:22.514Z,52.85
2022-08-25T16:08:50.299Z,53.91
2022-08-25T16:11:19.240Z,54.01
2022-08-25T16:13:46.975Z,53.90
2022-08-25T16:16:16.526Z,54.76
2022-08-25T16:18:44.617Z,54.90
2022-08-25T16:21:13.887Z,54.65
2022-08-25T16:23:43.177Z,54.50
2022-08-25T16:26:13.031Z,55.34
2022-08-25T16:28:43.747Z,56.29
2022-08-25T16:31:12.419Z,55.58
2022-08-25T16:36:15.730Z,56.50
2022-08-25T16:38:49.041Z,56.75
2022-08-25T16:41:20.004Z,56.71
2022-08-25T16:43:48.122Z,56.67
2022-08-25T16:46:18.378Z,56.74
2022-08-25T16:48:46.562Z,57.14
2022-08-25T16:51:16.834Z,56.78
2022-08-25T16:53:49.019Z,58.28
2022-08-25T16:56:16.221Z,58.06
2022-08-25T16:58:43.524Z,57.65
2022-08-25T17:01:13.488Z,57.64
2022-08-25T17:03:43.844Z,58.96
2022-08-25T17:06:11.794Z,58.26
2022-08-25T17:08:39.818Z,58.10
2022-08-25T17:11:11.229Z,58.87
2022-08-25T17:13:40.476Z,58.66
2022-08-25T17:16:16.381Z,58.59
2022-08-25T17:18:56.169Z,58.21
2022-08-25T17:21:27.103Z,58.90
2022-08-25T17:23:55.653Z,59.46
2022-08-25T17:26:29.314Z,58.81
2022-08-25T17:28:59.742Z,58.14
2022-08-25T17:31:29.927Z,57.08
2022-08-25T17:34:00.275Z,57.90
2022-08-25T17:36:28.192Z,57.88
2022-08-25T17:38:57.058Z,58.22
2022-08-25T17:41:29.616Z,57.55
2022-08-25T17:44:02.175Z,58.64
2022-08-25T17:46:29.560Z,58.20
2022-08-25T17:48:56.994Z,59.51
2022-08-25T17:51:26.190Z,59.74
2022-08-25T18:47:21.688Z,71.99
2022-08-25T18:49:49.522Z,72.87
2022-08-25T18:52:17.059Z,71.74
2022-08-25T18:54:47.723Z,71.91
2022-08-25T18:57:18.755Z,70.81
2022-08-25T18:59:46.151Z,71.88
2022-08-25T19:02:13.678Z,73.34
2022-08-25T19:04:43.619Z,77.75
2022-08-25T19:07:11.013Z,79.21
2022-08-25T19:09:38.337Z,79.42
2022-08-25T19:12:07.014Z,79.81
2022-08-25T19:14:39.248Z,78.55
2022-08-25T19:17:06.933Z,78.21
2022-08-25T19:19:34.294Z,77.98
2022-08-25T19:22:03.280Z,76.54
2022-08-25T19:24:31.590Z,76.82
2022-08-25T19:26:59.008Z,75.18
2022-08-25T19:29:26.376Z,75.70
2022-08-25T19:31:55.804Z,74.65
2022-08-25T19:34:28.047Z,73.47
2022-08-25T19:37:00.051Z,73.84
2022-08-25T19:39:28.719Z,73.32
2022-08-25T19:41:58.233Z,73.50
2022-08-25T19:44:27.736Z,73.80
2022-08-25T19:46:56.085Z,74.14
2022-08-25T19:49:27.934Z,73.03
2022-08-25T19:52:01.151Z,73.24
2022-08-25T19:54:32.913Z,73.15
2022-08-25T19:57:01.769Z,72.96
2022-08-25T19:59:34.255Z,72.41
2022-08-25T20:02:10.815Z,72.09
2022-08-25T20:04:38.238Z,72.35
2022-08-25T20:07:07.472Z,72.17
2022-08-25T20:09:42.101Z,71.54
2022-08-25T20:14:41.436Z,72.62
2022-08-25T20:17:14.669Z,73.84
2022-08-25T20:19:54.421Z,72.88
2022-08-25T20:22:26.391Z,73.15
2022-08-25T20:24:58.617Z,73.83
2022-08-25T20:27:28.805Z,73.65
2022-08-25T20:29:56.463Z,73.60
2022-08-25T20:32:24.186Z,74.39
2022-08-25T20:34:53.403Z,74.06
2022-08-25T20:37:23.133Z,75.34
2022-08-25T20:39:52.020Z,74.22
2022-08-25T20:42:20.922Z,75.24
2022-08-25T20:44:48.762Z,75.58
2022-08-25T20:47:16.086Z,74.20
2022-08-25T20:49:43.480Z,73.21
2022-08-25T20:52:11.284Z,73.17
2022-08-25T20:54:39.291Z,72.17
2022-08-25T20:57:08.212Z,72.65
2022-08-25T20:59:37.326Z,74.96
2022-08-25T21:02:04.932Z,74.05
2022-08-25T21:04:32.505Z,73.19
2022-08-25T21:07:00.364Z,71.65
2022-08-25T21:09:28.814Z,70.98
2022-08-25T21:11:57.574Z,70.98
2022-08-25T21:14:26.193Z,71.41
2022-08-25T21:16:55.773Z,70.78
2022-08-25T21:19:26.888Z,71.97
2022-08-25T21:21:59.867Z,73.01
2022-08-25T21:24:28.537Z,74.08
2022-08-25T21:26:57.833Z,75.24
2022-08-25T21:29:28.604Z,75.13
2022-08-25T21:31:57.618Z,74.88
2022-08-25T21:34:25.404Z,75.10
2022-08-25T21:36:56.307Z,75.50
2022-08-25T21:39:23.979Z,75.18
2022-08-25T21:41:52.864Z,74.93
2022-08-25T21:44:21.259Z,74.29
2022-08-25T21:46:54.258Z,73.25
2022-08-25T21:49:24.616Z,73.70
2022-08-25T21:52:00.481Z,73.07
2022-08-25T21:54:29.236Z,72.98
2022-08-25T21:56:58.971Z,72.71
2022-08-25T21:59:28.995Z,73.31
2022-08-25T22:01:57.736Z,73.23
2022-08-25T22:04:27.784Z,72.53
2022-08-25T22:06:55.838Z,71.75
2022-08-25T22:09:25.564Z,71.73
2022-08-25T22:11:52.906Z,72.35
2022-08-25T22:14:22.407Z,72.61
2022-08-25T22:16:52.171Z,71.35
2022-08-25T22:19:19.584Z,71.95
2022-08-25T22:21:48.197Z,71.23
2022-08-25T22:24:15.939Z,71.67
2022-08-25T22:26:43.505Z,71.57
2022-08-25T22:29:16.218Z,73.14
2022-08-25T22:32:13.538Z,71.77
2022-08-25T22:34:41.461Z,71.52
2022-08-25T22:37:12.675Z,71.92
2022-08-25T22:39:44.405Z,73.04
2022-08-25T22:42:11.963Z,73.17
2022-08-25T22:44:39.910Z,73.39
2022-08-25T22:47:07.467Z,72.03
2022-08-25T22:49:35.555Z,74.12
2022-08-25T22:52:03.250Z,75.22
2022-08-25T22:54:31.966Z,75.73
2022-08-25T22:57:04.587Z,73.69
2022-08-25T22:59:34.310Z,71.85
2022-08-25T23:02:01.841Z,72.02
2022-08-25T23:04:29.652Z,77.10
2022-08-25T23:06:56.950Z,75.02
2022-08-25T23:09:24.803Z,76.56
2022-08-25T23:11:53.526Z,73.33
2022-08-25T23:14:21.629Z,71.51
2022-08-25T23:16:49.783Z,70.80
2022-08-25T23:19:17.961Z,70.49
2022-08-25T23:21:45.770Z,70.84
2022-08-25T23:24:14.547Z,72.69
2022-08-25T23:26:59.364Z,74.91
2022-08-25T23:29:27.780Z,75.97
2022-08-25T23:31:55.450Z,76.10
2022-08-25T23:34:23.305Z,76.29
2022-08-25T23:36:51.756Z,76.12
2022-08-25T23:39:19.020Z,75.70
2022-08-25T23:41:49.559Z,73.63
2022-08-25T23:44:19.075Z,73.85
2022-08-25T23:46:47.069Z,77.80
2022-08-25T23:49:18.520Z,77.62
2022-08-25T23:51:47.572Z,77.60
2022-08-25T23:54:15.992Z,75.75
2022-08-25T23:56:51.747Z,72.92
2022-08-25T23:59:24.318Z,72.50
